sensor_id;sensor_type;location;lat;lon;timestamp;pressure;altitude;pressure_sealevel;temperature;humidity
73981;BME280;62348;51.412;5.436;2023-04-24T00:00:05;99885.69;;;9.08;99.28
73981;BME280;62348;51.412;5.436;2023-04-24T00:02:32;99882.19;;;9.07;99.25
73981;BME280;62348;51.412;5.436;2023-04-24T00:04:58;99889.75;;;9.05;99.07
73981;BME280;62348;51.412;5.436;2023-04-24T00:07:30;99887.84;;;9.06;99.15
73981;BME280;62348;51.412;5.436;2023-04-24T00:09:56;99884.06;;;9.07;99.13
73981;BME280;62348;51.412;5.436;2023-04-24T00:12:21;99890.28;;;9.07;98.93
73981;BME280;62348;51.412;5.436;2023-04-24T00:14:47;99896.22;;;9.09;99.14
73981;BME280;62348;51.412;5.436;2023-04-24T00:17:12;99894.59;;;9.08;98.63
73981;BME280;62348;51.412;5.436;2023-04-24T00:19:38;99897.28;;;9.08;98.31
73981;BME280;62348;51.412;5.436;2023-04-24T00:22:04;99899.19;;;9.08;97.99
73981;BME280;62348;51.412;5.436;2023-04-24T00:24:29;99897.31;;;9.03;98.19
73981;BME280;62348;51.412;5.436;2023-04-24T00:26:55;99901.59;;;9.04;98.26
73981;BME280;62348;51.412;5.436;2023-04-24T00:29:20;99893.53;;;9.04;98.15
73981;BME280;62348;51.412;5.436;2023-04-24T00:31:45;99901.88;;;9.03;98.17
73981;BME280;62348;51.412;5.436;2023-04-24T00:34:11;99901.88;;;9.03;98.26
73981;BME280;62348;51.412;5.436;2023-04-24T00:36:37;99911.88;;;9.02;97.98
73981;BME280;62348;51.412;5.436;2023-04-24T00:39:03;99904.88;;;9.01;97.99
73981;BME280;62348;51.412;5.436;2023-04-24T00:41:29;99904.88;;;9.01;97.84
73981;BME280;62348;51.412;5.436;2023-04-24T00:43:54;99912.69;;;8.97;97.66
73981;BME280;62348;51.412;5.436;2023-04-24T00:46:21;99912.16;;;8.95;98.15
73981;BME280;62348;51.412;5.436;2023-04-24T00:48:46;99907.56;;;8.91;98.03
73981;BME280;62348;51.412;5.436;2023-04-24T00:51:12;99918.09;;;8.92;98.12
73981;BME280;62348;51.412;5.436;2023-04-24T00:53:37;99910.25;;;8.91;98.01
73981;BME280;62348;51.412;5.436;2023-04-24T00:56:04;99908.09;;;8.88;98.35
73981;BME280;62348;51.412;5.436;2023-04-24T00:58:30;99909.19;;;8.87;97.97
73981;BME280;62348;51.412;5.436;2023-04-24T01:00:56;99904.88;;;8.86;97.68
73981;BME280;62348;51.412;5.436;2023-04-24T01:03:25;99911.91;;;8.87;98.39
73981;BME280;62348;51.412;5.436;2023-04-24T01:05:52;99905.41;;;8.88;98.86
73981;BME280;62348;51.412;5.436;2023-04-24T01:08:20;99911.63;;;8.88;98.43
73981;BME280;62348;51.412;5.436;2023-04-24T01:10:50;99908.94;;;8.88;98.63
73981;BME280;62348;51.412;5.436;2023-04-24T01:13:17;99904.34;;;8.84;98.47
73981;BME280;62348;51.412;5.436;2023-04-24T01:15:42;99911.34;;;8.85;98.69
73981;BME280;62348;51.412;5.436;2023-04-24T01:18:08;99905.16;;;8.84;98.90
73981;BME280;62348;51.412;5.436;2023-04-24T01:20:33;99907.34;;;8.82;98.82
73981;BME280;62348;51.412;5.436;2023-04-24T01:22:59;99911.88;;;8.82;98.70
73981;BME280;62348;51.412;5.436;2023-04-24T01:25:25;99904.06;;;8.80;98.67
73981;BME280;62348;51.412;5.436;2023-04-24T01:27:52;99907.88;;;8.79;98.84
73981;BME280;62348;51.412;5.436;2023-04-24T01:30:18;99907.06;;;8.78;98.47
73981;BME280;62348;51.412;5.436;2023-04-24T01:32:44;99900.03;;;8.77;98.71
73981;BME280;62348;51.412;5.436;2023-04-24T01:35:10;99902.72;;;8.77;98.29
73981;BME280;62348;51.412;5.436;2023-04-24T01:37:36;99903.00;;;8.76;98.13
73981;BME280;62348;51.412;5.436;2023-04-24T01:40:08;99899.25;;;8.77;98.27
73981;BME280;62348;51.412;5.436;2023-04-24T01:42:34;99903.25;;;8.74;97.98
73981;BME280;62348;51.412;5.436;2023-04-24T01:45:02;99913.78;;;8.76;98.37
73981;BME280;62348;51.412;5.436;2023-04-24T01:47:29;99907.31;;;8.77;98.55
73981;BME280;62348;51.412;5.436;2023-04-24T01:49:55;99905.69;;;8.76;97.81
73981;BME280;62348;51.412;5.436;2023-04-24T01:52:20;99907.31;;;8.77;98.65
73981;BME280;62348;51.412;5.436;2023-04-24T01:54:46;99906.78;;;8.75;97.83
73981;BME280;62348;51.412;5.436;2023-04-24T01:57:13;99904.38;;;8.73;97.57
73981;BME280;62348;51.412;5.436;2023-04-24T01:59:39;99911.34;;;8.74;97.93
73981;BME280;62348;51.412;5.436;2023-04-24T02:02:04;99908.13;;;8.72;98.56
73981;BME280;62348;51.412;5.436;2023-04-24T02:04:30;99912.72;;;8.72;97.85
73981;BME280;62348;51.412;5.436;2023-04-24T02:06:55;99911.13;;;8.71;97.54
73981;BME280;62348;51.412;5.436;2023-04-24T02:09:21;99907.59;;;8.70;98.07
73981;BME280;62348;51.412;5.436;2023-04-24T02:11:46;99905.72;;;8.71;97.69
73981;BME280;62348;51.412;5.436;2023-04-24T02:14:11;99908.94;;;8.73;97.53
73981;BME280;62348;51.412;5.436;2023-04-24T02:16:37;99907.59;;;8.70;97.17
73981;BME280;62348;51.412;5.436;2023-04-24T02:19:03;99915.66;;;8.70;97.38
73981;BME280;62348;51.412;5.436;2023-04-24T02:21:28;99918.09;;;8.72;97.66
73981;BME280;62348;51.412;5.436;2023-04-24T02:23:55;99916.75;;;8.74;97.66
73981;BME280;62348;51.412;5.436;2023-04-24T02:26:21;99913.50;;;8.72;97.66
73981;BME280;62348;51.412;5.436;2023-04-24T02:28:46;99907.31;;;8.72;97.41
73981;BME280;62348;51.412;5.436;2023-04-24T02:31:12;99913.81;;;8.71;97.10
73981;BME280;62348;51.412;5.436;2023-04-24T02:33:37;99915.66;;;8.70;96.90
73981;BME280;62348;51.412;5.436;2023-04-24T02:36:02;99919.72;;;8.68;97.06
73981;BME280;62348;51.412;5.436;2023-04-24T02:38:29;99910.00;;;8.67;97.28
73981;BME280;62348;51.412;5.436;2023-04-24T02:40:54;99908.94;;;8.68;97.18
73981;BME280;62348;51.412;5.436;2023-04-24T02:43:20;99906.00;;;8.69;97.30
73981;BME280;62348;51.412;5.436;2023-04-24T02:45:45;99903.81;;;8.66;96.97
73981;BME280;62348;51.412;5.436;2023-04-24T02:48:11;99898.97;;;8.63;96.60
73981;BME280;62348;51.412;5.436;2023-04-24T02:50:36;99903.03;;;8.66;97.16
73981;BME280;62348;51.412;5.436;2023-04-24T02:53:01;99900.31;;;8.66;96.52
73981;BME280;62348;51.412;5.436;2023-04-24T02:55:27;99900.84;;;8.63;96.47
73981;BME280;62348;51.412;5.436;2023-04-24T02:57:53;99900.84;;;8.63;96.58
73981;BME280;62348;51.412;5.436;2023-04-24T03:00:18;99898.97;;;8.63;95.96
73981;BME280;62348;51.412;5.436;2023-04-24T03:02:44;99896.56;;;8.62;96.14
73981;BME280;62348;51.412;5.436;2023-04-24T03:05:09;99899.53;;;8.60;96.29
73981;BME280;62348;51.412;5.436;2023-04-24T03:07:37;99888.75;;;8.60;96.59
73981;BME280;62348;51.412;5.436;2023-04-24T03:10:02;99900.31;;;8.60;96.32
73981;BME280;62348;51.412;5.436;2023-04-24T03:12:28;99903.00;;;8.60;96.27
73981;BME280;62348;51.412;5.436;2023-04-24T03:14:53;99899.00;;;8.58;96.06
73981;BME280;62348;51.412;5.436;2023-04-24T03:17:19;99904.38;;;8.58;96.75
73981;BME280;62348;51.412;5.436;2023-04-24T03:19:44;99904.38;;;8.58;96.65
73981;BME280;62348;51.412;5.436;2023-04-24T03:22:09;99902.75;;;8.57;96.19
73981;BME280;62348;51.412;5.436;2023-04-24T03:24:36;99902.75;;;8.57;96.37
73981;BME280;62348;51.412;5.436;2023-04-24T03:27:01;99895.75;;;8.56;96.03
73981;BME280;62348;51.412;5.436;2023-04-24T03:29:27;99900.63;;;8.54;95.82
73981;BME280;62348;51.412;5.436;2023-04-24T03:31:52;99905.16;;;8.53;95.97
73981;BME280;62348;51.412;5.436;2023-04-24T03:34:17;99904.38;;;8.53;95.92
73981;BME280;62348;51.412;5.436;2023-04-24T03:36:43;99907.06;;;8.53;96.21
73981;BME280;62348;51.412;5.436;2023-04-24T03:39:08;99908.69;;;8.54;95.94
73981;BME280;62348;51.412;5.436;2023-04-24T03:41:34;99908.16;;;8.52;95.84
73981;BME280;62348;51.412;5.436;2023-04-24T03:43:59;99908.97;;;8.52;95.71
73981;BME280;62348;51.412;5.436;2023-04-24T03:46:25;99908.16;;;8.52;95.79
73981;BME280;62348;51.412;5.436;2023-04-24T03:48:50;99895.75;;;8.51;95.49
73981;BME280;62348;51.412;5.436;2023-04-24T03:51:16;99897.91;;;8.49;95.44
73981;BME280;62348;51.412;5.436;2023-04-24T03:53:41;99898.44;;;8.46;95.69
73981;BME280;62348;51.412;5.436;2023-04-24T03:56:06;99901.66;;;8.48;95.79
73981;BME280;62348;51.412;5.436;2023-04-24T03:58:32;99905.47;;;8.47;95.93
73981;BME280;62348;51.412;5.436;2023-04-24T04:00:57;99901.13;;;8.46;95.93
73981;BME280;62348;51.412;5.436;2023-04-24T04:03:23;99910.31;;;8.45;96.01
73981;BME280;62348;51.412;5.436;2023-04-24T04:05:50;99903.81;;;8.46;96.32
73981;BME280;62348;51.412;5.436;2023-04-24T04:08:16;99906.78;;;8.44;96.90
73981;BME280;62348;51.412;5.436;2023-04-24T04:10:41;99903.56;;;8.42;96.13
73981;BME280;62348;51.412;5.436;2023-04-24T04:13:06;99904.63;;;8.41;96.53
73981;BME280;62348;51.412;5.436;2023-04-24T04:15:32;99911.34;;;8.38;96.52
73981;BME280;62348;51.412;5.436;2023-04-24T04:17:57;99921.56;;;8.36;96.62
73981;BME280;62348;51.412;5.436;2023-04-24T04:20:23;99910.00;;;8.36;96.98
73981;BME280;62348;51.412;5.436;2023-04-24T04:22:48;99914.03;;;8.33;97.10
73981;BME280;62348;51.412;5.436;2023-04-24T04:25:14;99912.94;;;8.34;97.07
73981;BME280;62348;51.412;5.436;2023-04-24T04:27:39;99913.25;;;8.33;97.70
73981;BME280;62348;51.412;5.436;2023-04-24T04:30:07;99919.44;;;8.33;98.03
73981;BME280;62348;51.412;5.436;2023-04-24T04:32:34;99914.84;;;8.34;97.89
73981;BME280;62348;51.412;5.436;2023-04-24T04:35:00;99911.34;;;8.28;97.73
73981;BME280;62348;51.412;5.436;2023-04-24T04:37:32;99914.28;;;8.27;98.04
73981;BME280;62348;51.412;5.436;2023-04-24T04:40:01;99919.13;;;8.25;98.54
73981;BME280;62348;51.412;5.436;2023-04-24T04:42:32;99919.13;;;8.25;98.88
73981;BME280;62348;51.412;5.436;2023-04-24T04:45:02;99913.22;;;8.23;98.80
73981;BME280;62348;51.412;5.436;2023-04-24T04:47:28;99912.16;;;8.24;99.10
73981;BME280;62348;51.412;5.436;2023-04-24T04:49:57;99913.47;;;8.21;98.79
73981;BME280;62348;51.412;5.436;2023-04-24T04:52:22;99912.13;;;8.18;98.88
73981;BME280;62348;51.412;5.436;2023-04-24T04:54:50;99920.75;;;8.20;99.69
73981;BME280;62348;51.412;5.436;2023-04-24T04:57:15;99931.25;;;8.17;99.21
73981;BME280;62348;51.412;5.436;2023-04-24T04:59:41;99922.38;;;8.16;99.36
73981;BME280;62348;51.412;5.436;2023-04-24T05:02:06;99930.19;;;8.18;99.65
73981;BME280;62348;51.412;5.436;2023-04-24T05:04:31;99925.06;;;8.16;99.50
73981;BME280;62348;51.412;5.436;2023-04-24T05:06:57;99929.91;;;8.14;99.55
73981;BME280;62348;51.412;5.436;2023-04-24T05:09:22;99924.53;;;8.14;99.58
73981;BME280;62348;51.412;5.436;2023-04-24T05:11:48;99932.06;;;8.12;99.82
73981;BME280;62348;51.412;5.436;2023-04-24T05:14:13;99925.84;;;8.12;99.60
73981;BME280;62348;51.412;5.436;2023-04-24T05:16:39;99928.00;;;8.10;99.91
73981;BME280;62348;51.412;5.436;2023-04-24T05:19:05;99926.66;;;8.12;100.00
73981;BME280;62348;51.412;5.436;2023-04-24T05:21:31;99933.38;;;8.10;100.00
73981;BME280;62348;51.412;5.436;2023-04-24T05:23:57;99945.25;;;8.09;99.94
73981;BME280;62348;51.412;5.436;2023-04-24T05:26:23;99954.63;;;8.06;100.00
73981;BME280;62348;51.412;5.436;2023-04-24T05:28:48;99954.09;;;8.04;100.00
73981;BME280;62348;51.412;5.436;2023-04-24T05:31:14;99956.25;;;8.02;100.00
73981;BME280;62348;51.412;5.436;2023-04-24T05:33:39;99964.88;;;8.04;100.00
73981;BME280;62348;51.412;5.436;2023-04-24T05:36:06;99971.06;;;7.99;100.00
73981;BME280;62348;51.412;5.436;2023-04-24T05:38:32;99971.31;;;7.98;100.00
73981;BME280;62348;51.412;5.436;2023-04-24T05:40:57;99975.34;;;7.95;100.00
73981;BME280;62348;51.412;5.436;2023-04-24T05:43:22;99979.66;;;7.96;100.00
73981;BME280;62348;51.412;5.436;2023-04-24T05:45:48;99978.31;;;7.94;100.00
73981;BME280;62348;51.412;5.436;2023-04-24T05:48:13;99981.53;;;7.91;100.00
73981;BME280;62348;51.412;5.436;2023-04-24T05:50:39;99973.72;;;7.89;100.00
73981;BME280;62348;51.412;5.436;2023-04-24T05:53:05;99972.34;;;7.87;100.00
73981;BME280;62348;51.412;5.436;2023-04-24T05:55:32;99978.00;;;7.85;100.00
73981;BME280;62348;51.412;5.436;2023-04-24T05:57:57;99982.31;;;7.86;100.00
73981;BME280;62348;51.412;5.436;2023-04-24T06:00:23;99987.16;;;7.84;100.00
73981;BME280;62348;51.412;5.436;2023-04-24T06:02:49;99994.69;;;7.82;100.00
73981;BME280;62348;51.412;5.436;2023-04-24T06:05:14;99986.06;;;7.80;100.00
73981;BME280;62348;51.412;5.436;2023-04-24T06:07:40;99993.84;;;7.81;100.00
73981;BME280;62348;51.412;5.436;2023-04-24T06:10:06;100008.13;;;7.77;100.00
73981;BME280;62348;51.412;5.436;2023-04-24T06:12:32;100014.84;;;7.74;100.00
73981;BME280;62348;51.412;5.436;2023-04-24T06:14:57;100022.66;;;7.76;100.00
73981;BME280;62348;51.412;5.436;2023-04-24T06:17:22;100020.75;;;7.71;100.00
73981;BME280;62348;51.412;5.436;2023-04-24T06:19:48;100033.13;;;7.72;100.00
73981;BME280;62348;51.412;5.436;2023-04-24T06:22:13;100025.88;;;7.73;100.00
73981;BME280;62348;51.412;5.436;2023-04-24T06:24:42;100040.91;;;7.69;100.00
73981;BME280;62348;51.412;5.436;2023-04-24T06:27:07;100038.22;;;7.69;100.00
73981;BME280;62348;51.412;5.436;2023-04-24T06:29:33;100055.44;;;7.68;100.00
73981;BME280;62348;51.412;5.436;2023-04-24T06:31:59;100055.97;;;7.70;100.00
73981;BME280;62348;51.412;5.436;2023-04-24T06:34:24;100062.69;;;7.67;100.00
73981;BME280;62348;51.412;5.436;2023-04-24T06:36:50;100071.31;;;7.69;100.00
73981;BME280;62348;51.412;5.436;2023-04-24T06:39:15;100082.63;;;7.71;100.00
73981;BME280;62348;51.412;5.436;2023-04-24T06:41:41;100081.28;;;7.69;100.00
73981;BME280;62348;51.412;5.436;2023-04-24T06:44:06;100085.56;;;7.70;100.00
73981;BME280;62348;51.412;5.436;2023-04-24T06:46:32;100097.16;;;7.70;100.00
73981;BME280;62348;51.412;5.436;2023-04-24T06:48:57;100098.22;;;7.69;100.00
73981;BME280;62348;51.412;5.436;2023-04-24T06:51:24;100101.41;;;7.66;100.00
73981;BME280;62348;51.412;5.436;2023-04-24T06:53:50;100110.88;;;7.69;100.00
73981;BME280;62348;51.412;5.436;2023-04-24T06:56:16;100117.06;;;7.69;100.00
73981;BME280;62348;51.412;5.436;2023-04-24T06:58:42;100132.16;;;7.70;100.00
73981;BME280;62348;51.412;5.436;2023-04-24T07:01:07;100123.50;;;7.68;100.00
73981;BME280;62348;51.412;5.436;2023-04-24T07:03:32;100143.97;;;7.69;100.00
73981;BME280;62348;51.412;5.436;2023-04-24T07:05:58;100149.34;;;7.69;100.00
73981;BME280;62348;51.412;5.436;2023-04-24T07:08:23;100165.75;;;7.68;100.00
73981;BME280;62348;51.412;5.436;2023-04-24T07:10:49;100167.63;;;7.67;100.00
73981;BME280;62348;51.412;5.436;2023-04-24T07:13:16;100170.81;;;7.64;100.00
73981;BME280;62348;51.412;5.436;2023-04-24T07:15:42;100179.72;;;7.65;100.00
73981;BME280;62348;51.412;5.436;2023-04-24T07:18:07;100190.22;;;7.66;100.00
73981;BME280;62348;51.412;5.436;2023-04-24T07:20:33;100196.16;;;7.68;100.00
73981;BME280;62348;51.412;5.436;2023-04-24T07:22:59;100213.94;;;7.69;100.00
73981;BME280;62348;51.412;5.436;2023-04-24T07:25:25;100213.13;;;7.69;100.00
73981;BME280;62348;51.412;5.436;2023-04-24T07:27:50;100218.50;;;7.69;100.00
73981;BME280;62348;51.412;5.436;2023-04-24T07:30:15;100215.28;;;7.72;100.00
73981;BME280;62348;51.412;5.436;2023-04-24T07:32:41;100227.44;;;7.74;100.00
73981;BME280;62348;51.412;5.436;2023-04-24T07:35:06;100236.81;;;7.72;100.00
73981;BME280;62348;51.412;5.436;2023-04-24T07:37:32;100240.03;;;7.69;100.00
73981;BME280;62348;51.412;5.436;2023-04-24T07:39:58;100252.66;;;7.68;100.00
73981;BME280;62348;51.412;5.436;2023-04-24T07:42:23;100258.03;;;7.68;100.00
73981;BME280;62348;51.412;5.436;2023-04-24T07:44:48;100266.09;;;7.68;100.00
73981;BME280;62348;51.412;5.436;2023-04-24T07:47:14;100283.59;;;7.66;100.00
73981;BME280;62348;51.412;5.436;2023-04-24T07:49:44;100292.47;;;7.66;100.00
73981;BME280;62348;51.412;5.436;2023-04-24T07:52:09;100291.91;;;7.64;100.00
73981;BME280;62348;51.412;5.436;2023-04-24T07:54:34;100299.44;;;7.62;100.00
73981;BME280;62348;51.412;5.436;2023-04-24T07:57:00;100305.59;;;7.62;100.00
73981;BME280;62348;51.412;5.436;2023-04-24T07:59:26;100311.28;;;7.61;100.00
73981;BME280;62348;51.412;5.436;2023-04-24T08:01:51;100323.66;;;7.62;100.00
73981;BME280;62348;51.412;5.436;2023-04-24T08:04:16;100322.91;;;7.67;100.00
73981;BME280;62348;51.412;5.436;2023-04-24T08:06:43;100324.25;;;7.69;100.00
73981;BME280;62348;51.412;5.436;2023-04-24T08:09:08;100331.28;;;7.70;100.00
73981;BME280;62348;51.412;5.436;2023-04-24T08:11:34;100327.25;;;7.73;100.00
73981;BME280;62348;51.412;5.436;2023-04-24T08:13:59;100329.16;;;7.72;100.00
73981;BME280;62348;51.412;5.436;2023-04-24T08:16:25;100333.44;;;7.73;100.00
73981;BME280;62348;51.412;5.436;2023-04-24T08:18:51;100349.84;;;7.72;100.00
73981;BME280;62348;51.412;5.436;2023-04-24T08:21:17;100365.44;;;7.70;100.00
73981;BME280;62348;51.412;5.436;2023-04-24T08:23:44;100364.63;;;7.69;100.00
73981;BME280;62348;51.412;5.436;2023-04-24T08:26:10;100372.44;;;7.71;100.00
73981;BME280;62348;51.412;5.436;2023-04-24T08:28:36;100377.59;;;7.72;100.00
73981;BME280;62348;51.412;5.436;2023-04-24T08:31:02;100385.66;;;7.72;100.00
73981;BME280;62348;51.412;5.436;2023-04-24T08:33:27;100383.53;;;7.74;100.00
73981;BME280;62348;51.412;5.436;2023-04-24T08:35:57;100388.66;;;7.76;100.00
73981;BME280;62348;51.412;5.436;2023-04-24T08:38:23;100381.16;;;7.78;100.00
73981;BME280;62348;51.412;5.436;2023-04-24T08:40:48;100386.31;;;7.85;100.00
73981;BME280;62348;51.412;5.436;2023-04-24T08:43:15;100397.13;;;7.90;100.00
73981;BME280;62348;51.412;5.436;2023-04-24T08:45:41;100406.81;;;7.91;100.00
73981;BME280;62348;51.412;5.436;2023-04-24T08:48:07;100403.06;;;7.92;100.00
73981;BME280;62348;51.412;5.436;2023-04-24T08:50:34;100413.91;;;7.97;100.00
73981;BME280;62348;51.412;5.436;2023-04-24T08:53:00;100413.13;;;8.01;100.00
73981;BME280;62348;51.412;5.436;2023-04-24T08:55:26;100424.53;;;8.09;100.00
73981;BME280;62348;51.412;5.436;2023-04-24T08:57:52;100427.28;;;8.14;100.00
73981;BME280;62348;51.412;5.436;2023-04-24T09:00:20;100432.44;;;8.20;100.00
73981;BME280;62348;51.412;5.436;2023-04-24T09:02:48;100435.69;;;8.23;100.00
73981;BME280;62348;51.412;5.436;2023-04-24T09:05:16;100438.63;;;8.21;99.61
73981;BME280;62348;51.412;5.436;2023-04-24T09:07:45;100437.75;;;8.15;99.34
73981;BME280;62348;51.412;5.436;2023-04-24T09:10:11;100450.63;;;8.08;98.50
73981;BME280;62348;51.412;5.436;2023-04-24T09:12:37;100462.97;;;8.04;97.80
73981;BME280;62348;51.412;5.436;2023-04-24T09:15:03;100462.66;;;8.00;98.67
73981;BME280;62348;51.412;5.436;2023-04-24T09:17:30;100472.94;;;8.04;98.98
73981;BME280;62348;51.412;5.436;2023-04-24T09:19:56;100469.44;;;8.03;98.99
73981;BME280;62348;51.412;5.436;2023-04-24T09:22:21;100479.44;;;8.08;99.11
73981;BME280;62348;51.412;5.436;2023-04-24T09:24:47;100478.94;;;8.11;98.14
73981;BME280;62348;51.412;5.436;2023-04-24T09:27:13;100475.47;;;8.15;98.67
73981;BME280;62348;51.412;5.436;2023-04-24T09:29:53;100479.03;;;8.21;98.50
73981;BME280;62348;51.412;5.436;2023-04-24T09:32:21;100485.28;;;8.27;98.40
73981;BME280;62348;51.412;5.436;2023-04-24T09:34:48;100489.69;;;8.33;98.27
73981;BME280;62348;51.412;5.436;2023-04-24T09:37:29;100493.22;;;8.38;98.20
73981;BME280;62348;51.412;5.436;2023-04-24T09:40:27;100503.72;;;8.40;98.41
73981;BME280;62348;51.412;5.436;2023-04-24T09:42:55;100501.50;;;8.32;97.86
73981;BME280;62348;51.412;5.436;2023-04-24T09:45:36;100510.13;;;8.34;97.68
73981;BME280;62348;51.412;5.436;2023-04-24T09:48:03;100513.84;;;8.28;97.13
73981;BME280;62348;51.412;5.436;2023-04-24T09:50:30;100520.28;;;8.27;97.53
73981;BME280;62348;51.412;5.436;2023-04-24T09:53:02;100521.69;;;8.29;97.26
73981;BME280;62348;51.412;5.436;2023-04-24T09:55:28;100525.75;;;8.32;96.03
73981;BME280;62348;51.412;5.436;2023-04-24T09:57:55;100530.94;;;8.38;97.03
73981;BME280;62348;51.412;5.436;2023-04-24T10:00:29;100542.88;;;8.43;95.47
73981;BME280;62348;51.412;5.436;2023-04-24T10:02:59;100543.78;;;8.53;93.99
73981;BME280;62348;51.412;5.436;2023-04-24T10:05:35;100546.88;;;8.67;93.10
73981;BME280;62348;51.412;5.436;2023-04-24T10:08:05;100549.91;;;8.76;93.54
73981;BME280;62348;51.412;5.436;2023-04-24T10:10:32;100534.28;;;8.78;92.28
73981;BME280;62348;51.412;5.436;2023-04-24T10:12:59;100549.66;;;8.77;92.37
73981;BME280;62348;51.412;5.436;2023-04-24T10:15:25;100552.06;;;8.74;91.90
73981;BME280;62348;51.412;5.436;2023-04-24T10:17:51;100553.88;;;8.68;91.01
73981;BME280;62348;51.412;5.436;2023-04-24T10:20:25;100557.13;;;8.70;91.54
73981;BME280;62348;51.412;5.436;2023-04-24T10:22:53;100557.69;;;8.72;91.03
73981;BME280;62348;51.412;5.436;2023-04-24T10:25:25;100563.41;;;8.76;91.85
73981;BME280;62348;51.412;5.436;2023-04-24T10:27:51;100563.16;;;8.77;90.13
73981;BME280;62348;51.412;5.436;2023-04-24T10:30:18;100569.91;;;8.80;90.71
73981;BME280;62348;51.412;5.436;2023-04-24T10:32:44;100567.19;;;8.80;90.34
73981;BME280;62348;51.412;5.436;2023-04-24T10:35:12;100570.47;;;8.82;88.90
73981;BME280;62348;51.412;5.436;2023-04-24T10:37:41;100565.09;;;8.82;88.93
73981;BME280;62348;51.412;5.436;2023-04-24T10:40:08;100567.25;;;8.85;89.64
73981;BME280;62348;51.412;5.436;2023-04-24T10:42:35;100567.00;;;8.87;87.21
73981;BME280;62348;51.412;5.436;2023-04-24T10:45:06;100577.22;;;8.85;85.66
73981;BME280;62348;51.412;5.436;2023-04-24T10:47:40;100579.94;;;8.85;86.87
73981;BME280;62348;51.412;5.436;2023-04-24T10:50:10;100590.97;;;8.83;86.98
73981;BME280;62348;51.412;5.436;2023-04-24T10:52:49;100599.41;;;8.92;88.97
73981;BME280;62348;51.412;5.436;2023-04-24T10:55:41;100599.50;;;9.02;87.35
73981;BME280;62348;51.412;5.436;2023-04-24T10:58:07;100588.16;;;9.00;84.57
73981;BME280;62348;51.412;5.436;2023-04-24T11:00:36;100608.09;;;8.99;85.01
73981;BME280;62348;51.412;5.436;2023-04-24T11:03:04;100607.53;;;8.97;84.28
73981;BME280;62348;51.412;5.436;2023-04-24T11:06:02;100608.38;;;8.97;85.53
73981;BME280;62348;51.412;5.436;2023-04-24T11:13:24;100615.59;;;8.92;82.84
73981;BME280;62348;51.412;5.436;2023-04-24T11:16:12;100619.72;;;8.99;84.66
73981;BME280;62348;51.412;5.436;2023-04-24T11:18:39;100612.97;;;9.02;84.14
73981;BME280;62348;51.412;5.436;2023-04-24T11:21:12;100630.59;;;9.10;84.59
73981;BME280;62348;51.412;5.436;2023-04-24T11:23:39;100628.19;;;9.13;81.30
73981;BME280;62348;51.412;5.436;2023-04-24T11:26:30;100636.09;;;9.20;84.56
73981;BME280;62348;51.412;5.436;2023-04-24T11:29:08;100631.25;;;9.22;82.28
73981;BME280;62348;51.412;5.436;2023-04-24T11:31:37;100647.97;;;9.24;81.41
73981;BME280;62348;51.412;5.436;2023-04-24T11:34:10;100642.84;;;9.23;81.16
73981;BME280;62348;51.412;5.436;2023-04-24T11:36:37;100649.34;;;9.27;81.43
73981;BME280;62348;51.412;5.436;2023-04-24T11:39:03;100645.31;;;9.29;80.46
73981;BME280;62348;51.412;5.436;2023-04-24T11:41:29;100655.34;;;9.34;81.14
73981;BME280;62348;51.412;5.436;2023-04-24T11:43:56;100659.66;;;9.35;80.93
73981;BME280;62348;51.412;5.436;2023-04-24T11:46:21;100662.91;;;9.37;79.71
73981;BME280;62348;51.412;5.436;2023-04-24T11:48:47;100663.75;;;9.37;78.44
73981;BME280;62348;51.412;5.436;2023-04-24T11:51:13;100672.91;;;9.36;79.55
73981;BME280;62348;51.412;5.436;2023-04-24T11:53:39;100671.59;;;9.39;79.24
73981;BME280;62348;51.412;5.436;2023-04-24T11:56:05;100676.47;;;9.42;79.33
73981;BME280;62348;51.412;5.436;2023-04-24T11:58:38;100671.88;;;9.43;78.40
73981;BME280;62348;51.412;5.436;2023-04-24T12:01:04;100676.47;;;9.42;79.27
73981;BME280;62348;51.412;5.436;2023-04-24T12:03:30;100685.66;;;9.46;79.40
73981;BME280;62348;51.412;5.436;2023-04-24T12:06:06;100675.97;;;9.50;78.77
73981;BME280;62348;51.412;5.436;2023-04-24T12:08:33;100681.16;;;9.57;78.59
73981;BME280;62348;51.412;5.436;2023-04-24T12:11:00;100685.84;;;9.67;78.95
73981;BME280;62348;51.412;5.436;2023-04-24T12:13:26;100678.06;;;9.75;79.40
73981;BME280;62348;51.412;5.436;2023-04-24T12:15:51;100684.06;;;9.83;74.91
73981;BME280;62348;51.412;5.436;2023-04-24T12:18:17;100688.63;;;9.82;75.86
73981;BME280;62348;51.412;5.436;2023-04-24T12:20:42;100675.97;;;9.83;74.01
73981;BME280;62348;51.412;5.436;2023-04-24T12:23:07;100679.72;;;9.82;74.32
73981;BME280;62348;51.412;5.436;2023-04-24T12:25:33;100701.34;;;9.82;74.49
73981;BME280;62348;51.412;5.436;2023-04-24T12:30:28;100703.03;;;9.93;75.73
73981;BME280;62348;51.412;5.436;2023-04-24T12:32:54;100702.53;;;9.96;74.45
73981;BME280;62348;51.412;5.436;2023-04-24T12:35:23;100715.72;;;9.92;73.54
73981;BME280;62348;51.412;5.436;2023-04-24T12:37:49;100715.94;;;9.86;73.86
73981;BME280;62348;51.412;5.436;2023-04-24T12:40:17;100715.69;;;9.87;74.89
73981;BME280;62348;51.412;5.436;2023-04-24T12:42:47;100720.59;;;9.90;74.03
73981;BME280;62348;51.412;5.436;2023-04-24T12:45:14;100718.94;;;9.89;73.71
73981;BME280;62348;51.412;5.436;2023-04-24T12:47:41;100726.78;;;9.91;72.49
73981;BME280;62348;51.412;5.436;2023-04-24T12:50:14;100728.94;;;9.89;73.70
73981;BME280;62348;51.412;5.436;2023-04-24T12:52:41;100730.00;;;9.88;72.68
73981;BME280;62348;51.412;5.436;2023-04-24T12:55:07;100734.03;;;9.85;72.38
73981;BME280;62348;51.412;5.436;2023-04-24T12:57:33;100727.00;;;9.84;71.62
73981;BME280;62348;51.412;5.436;2023-04-24T13:00:00;100731.03;;;9.82;71.71
73981;BME280;62348;51.412;5.436;2023-04-24T13:02:27;100723.44;;;9.78;71.59
73981;BME280;62348;51.412;5.436;2023-04-24T13:04:54;100723.44;;;9.78;72.92
73981;BME280;62348;51.412;5.436;2023-04-24T13:07:19;100731.28;;;9.80;73.82